createdAt,value
2023-02-23T00:00:30.310Z,14.73
2023-02-23T00:03:00.415Z,14.33
2023-02-23T00:05:37.018Z,16.03
2023-02-23T00:08:04.770Z,15.33
2023-02-23T00:14:31.636Z,15.97
2023-02-23T00:16:59.011Z,15.97
2023-02-23T00:19:26.427Z,17.13
2023-02-23T00:21:54.666Z,16.10
2023-02-23T00:24:22.725Z,16.23
2023-02-23T00:26:50.220Z,16.43
2023-02-23T00:29:24.634Z,16.60
2023-02-23T00:31:52.992Z,16.67
2023-02-23T00:34:21.932Z,16.43
2023-02-23T00:36:54.792Z,15.77
2023-02-23T00:39:23.532Z,16.10
2023-02-23T00:41:52.577Z,16.33
2023-02-23T00:44:22.033Z,15.73
2023-02-23T00:46:50.580Z,15.17
2023-02-23T00:49:20.350Z,16.17
2023-02-23T00:55:55.825Z,14.67
2023-02-23T00:58:25.195Z,15.57
2023-02-23T01:00:53.643Z,14.93
2023-02-23T01:03:21.127Z,13.83
2023-02-23T01:05:48.528Z,13.23
2023-02-23T01:08:16.344Z,13.50
2023-02-23T01:10:45.410Z,13.10
2023-02-23T01:13:13.455Z,13.17
2023-02-23T01:15:44.776Z,12.63
2023-02-23T01:18:12.080Z,11.27
2023-02-23T01:20:40.356Z,11.50
2023-02-23T01:23:14.630Z,8.80
2023-02-23T01:25:45.208Z,9.57
2023-02-23T01:28:12.938Z,8.77
2023-02-23T01:30:41.048Z,8.93
2023-02-23T01:33:08.865Z,8.47
2023-02-23T01:35:36.410Z,8.50
2023-02-23T01:38:04.198Z,8.93
2023-02-23T01:40:32.930Z,9.77
2023-02-23T01:43:19.979Z,9.13
2023-02-23T01:45:47.636Z,9.93
2023-02-23T01:48:23.449Z,10.20
2023-02-23T01:50:59.108Z,9.37
2023-02-23T01:53:33.041Z,9.33
2023-02-23T01:56:09.909Z,8.90
2023-02-23T01:58:41.069Z,9.90
2023-02-23T02:01:08.498Z,9.73
2023-02-23T02:03:41.822Z,9.07
2023-02-23T02:06:14.439Z,9.27
2023-02-23T02:08:47.254Z,9.07
2023-02-23T02:15:15.086Z,8.37
2023-02-23T02:18:05.905Z,8.70
2023-02-23T02:20:48.158Z,8.50
2023-02-23T02:24:14.530Z,8.43
2023-02-23T02:27:15.873Z,8.47
2023-02-23T02:30:19.972Z,7.47
2023-02-23T02:33:04.881Z,8.77
2023-02-23T02:35:42.525Z,8.70
2023-02-23T02:38:31.215Z,8.37
2023-02-23T02:41:57.254Z,7.50
2023-02-23T02:44:37.584Z,7.87
2023-02-23T02:47:19.742Z,7.60
2023-02-23T02:50:06.062Z,7.63
2023-02-23T02:52:41.239Z,9.20
2023-02-23T02:55:47.326Z,8.40
2023-02-23T02:58:18.437Z,7.40
2023-02-23T03:00:50.383Z,7.17
2023-02-23T03:03:45.176Z,6.40
2023-02-23T03:06:12.536Z,8.17
2023-02-23T03:09:34.948Z,7.57
2023-02-23T03:12:11.114Z,13.17
2023-02-23T03:15:05.069Z,13.67
2023-02-23T03:18:00.744Z,11.40
2023-02-23T03:20:33.911Z,11.90
2023-02-23T03:24:01.797Z,11.20
2023-02-23T03:26:39.651Z,11.30
2023-02-23T03:29:31.456Z,11.37
2023-02-23T03:32:12.713Z,10.67
2023-02-23T03:35:07.175Z,9.87
2023-02-23T03:37:42.790Z,10.10
2023-02-23T03:40:27.290Z,10.20
2023-02-23T03:42:59.763Z,9.77
2023-02-23T03:45:30.226Z,9.47
2023-02-23T03:48:00.385Z,10.23
2023-02-23T03:50:57.014Z,9.83
2023-02-23T03:53:38.081Z,10.20
2023-02-23T03:56:09.663Z,9.77
2023-02-23T03:58:50.903Z,10.73
2023-02-23T04:01:21.966Z,11.10
2023-02-23T04:03:53.856Z,10.70
2023-02-23T04:06:28.498Z,10.17
2023-02-23T04:09:02.653Z,11.60
2023-02-23T04:12:09.900Z,11.30
2023-02-23T04:14:49.015Z,11.03
2023-02-23T04:17:18.025Z,11.23
2023-02-23T04:23:57.230Z,11.43
2023-02-23T04:26:24.523Z,12.63
2023-02-23T04:28:51.737Z,13.17
2023-02-23T04:31:19.257Z,13.20
2023-02-23T04:33:46.772Z,12.87
2023-02-23T04:36:14.205Z,13.00
2023-02-23T04:38:41.709Z,14.90
2023-02-23T04:41:09.397Z,13.67
2023-02-23T04:43:36.635Z,15.53
2023-02-23T04:46:04.023Z,12.47
2023-02-23T04:48:31.527Z,12.33
2023-02-23T04:50:58.724Z,13.17
2023-02-23T04:53:25.988Z,12.83
2023-02-23T04:55:53.316Z,13.47
2023-02-23T04:58:20.688Z,13.40
2023-02-23T05:00:48.012Z,14.57
2023-02-23T05:03:15.750Z,15.57
2023-02-23T05:05:43.840Z,16.30
2023-02-23T05:08:11.105Z,16.27
2023-02-23T05:10:40.260Z,15.60
2023-02-23T05:13:07.914Z,16.00
2023-02-23T05:15:35.173Z,14.77
2023-02-23T05:18:02.449Z,14.13
2023-02-23T05:20:29.700Z,15.17
2023-02-23T05:22:57.003Z,16.63
2023-02-23T05:25:24.440Z,15.33
2023-02-23T05:27:51.859Z,17.70
2023-02-23T05:30:19.238Z,17.10
2023-02-23T05:32:46.920Z,17.20
2023-02-23T05:39:14.297Z,19.00
2023-02-23T05:41:41.618Z,18.90
2023-02-23T05:48:24.041Z,19.03
2023-02-23T05:50:51.320Z,18.17
2023-02-23T05:53:18.507Z,17.23
2023-02-23T05:55:45.871Z,16.77
2023-02-23T06:02:19.381Z,16.03
2023-02-23T06:04:46.700Z,15.83
2023-02-23T06:07:13.894Z,14.90
2023-02-23T06:09:42.412Z,15.50
2023-02-23T06:12:11.608Z,16.13
2023-02-23T06:14:39.187Z,18.10
2023-02-23T06:17:07.021Z,19.50
2023-02-23T06:19:34.658Z,20.37
2023-02-23T06:22:01.832Z,17.73
2023-02-23T06:36:36.080Z,20.23
2023-02-23T06:43:03.177Z,23.10
2023-02-23T06:45:30.633Z,21.50
2023-02-23T06:48:01.267Z,24.17
2023-02-23T06:50:29.724Z,21.50
2023-02-23T06:52:56.985Z,22.40
2023-02-23T06:55:24.964Z,24.50
2023-02-23T07:01:57.956Z,22.70
2023-02-23T07:04:25.592Z,22.17
2023-02-23T07:06:53.003Z,23.67
2023-02-23T07:17:32.876Z,21.73
2023-02-23T07:20:00.103Z,23.33
2023-02-23T07:22:27.464Z,23.20
2023-02-23T07:29:08.578Z,28.17
2023-02-23T07:31:35.851Z,22.67
2023-02-23T07:34:03.754Z,23.77
2023-02-23T07:36:31.262Z,23.93
2023-02-23T07:38:58.622Z,23.50
2023-02-23T07:41:25.937Z,22.47
2023-02-23T07:43:53.103Z,22.63
2023-02-23T07:46:20.387Z,23.03
2023-02-23T07:48:47.970Z,20.93
2023-02-23T07:51:16.723Z,21.60
2023-02-23T07:53:45.126Z,22.30
2023-02-23T08:00:19.896Z,21.87
2023-02-23T08:02:47.194Z,21.47
2023-02-23T08:05:14.366Z,23.73
2023-02-23T08:07:41.870Z,22.23
2023-02-23T08:10:10.086Z,21.77
2023-02-23T08:12:43.108Z,22.13
2023-02-23T08:15:12.612Z,22.63
2023-02-23T08:17:40.924Z,23.50
2023-02-23T08:20:09.595Z,24.30
2023-02-23T08:22:48.459Z,24.37
2023-02-23T08:25:18.229Z,23.33
2023-02-23T08:27:46.451Z,24.07
2023-02-23T08:30:15.897Z,28.20
2023-02-23T08:36:49.952Z,28.00
2023-02-23T08:39:17.443Z,29.30
2023-02-23T08:41:44.633Z,24.40
2023-02-23T08:44:15.530Z,24.90
2023-02-23T08:46:44.073Z,26.50
2023-02-23T08:49:12.303Z,26.57
2023-02-23T08:51:39.670Z,26.57
2023-02-23T08:54:08.073Z,24.47
2023-02-23T08:56:35.387Z,25.50
2023-02-23T09:03:02.460Z,29.20
2023-02-23T09:09:38.160Z,24.97
2023-02-23T09:12:05.641Z,24.10
2023-02-23T09:14:32.937Z,24.23
2023-02-23T09:17:00.177Z,23.63
2023-02-23T09:19:27.727Z,22.97
2023-02-23T09:21:54.981Z,22.27
2023-02-23T09:24:22.538Z,23.30
2023-02-23T09:26:49.901Z,23.13
2023-02-23T09:29:17.145Z,23.97
2023-02-23T09:31:44.394Z,23.97
2023-02-23T09:34:11.725Z,27.33
2023-02-23T09:36:39.294Z,26.90
2023-02-23T09:39:06.503Z,25.90
2023-02-23T09:45:58.881Z,21.67
2023-02-23T09:48:28.932Z,22.43
2023-02-23T09:51:02.311Z,23.17
2023-02-23T09:54:00.121Z,22.77
2023-02-23T10:00:27.769Z,22.27
2023-02-23T10:03:34.508Z,22.00
2023-02-23T10:06:09.297Z,23.10
2023-02-23T10:08:56.108Z,23.83
2023-02-23T10:11:41.943Z,23.27
2023-02-23T10:14:39.128Z,23.63
2023-02-23T10:17:12.457Z,21.97
2023-02-23T10:20:30.475Z,22.50
2023-02-23T10:23:04.904Z,25.50
2023-02-23T10:25:40.327Z,22.83
2023-02-23T10:28:21.181Z,24.40
2023-02-23T10:30:50.684Z,23.33
2023-02-23T10:33:33.109Z,20.17
2023-02-23T10:36:31.650Z,18.70
2023-02-23T10:38:59.497Z,19.40
2023-02-23T10:41:26.693Z,19.93
2023-02-23T10:43:54.040Z,19.77
2023-02-23T10:50:48.654Z,17.57
2023-02-23T10:57:33.622Z,18.77
2023-02-23T11:04:25.459Z,18.73
2023-02-23T11:07:11.987Z,17.23
2023-02-23T11:09:47.027Z,16.03
2023-02-23T11:12:26.525Z,17.33
2023-02-23T11:14:57.568Z,16.80
2023-02-23T11:17:36.771Z,15.80
2023-02-23T11:20:18.484Z,16.73
2023-02-23T11:22:46.183Z,16.03
2023-02-23T11:25:28.303Z,16.80
2023-02-23T11:27:57.782Z,16.37
2023-02-23T11:30:37.328Z,15.37
2023-02-23T11:33:07.667Z,18.20
2023-02-23T11:35:35.467Z,18.23
2023-02-23T11:38:21.341Z,17.77
2023-02-23T11:41:03.721Z,20.07
2023-02-23T11:47:44.860Z,16.70
2023-02-23T11:50:32.063Z,16.90
2023-02-23T11:53:16.909Z,15.63
2023-02-23T11:55:53.905Z,15.77
2023-02-23T11:58:37.100Z,17.00
2023-02-23T12:01:10.328Z,14.93
2023-02-23T12:03:46.060Z,15.60
2023-02-23T12:06:26.446Z,14.90
2023-02-23T12:08:56.685Z,14.47
2023-02-23T12:11:29.250Z,15.17
2023-02-23T12:14:16.882Z,14.70
2023-02-23T12:16:53.626Z,13.67
2023-02-23T12:19:37.151Z,13.67
2023-02-23T12:26:19.986Z,12.77
2023-02-23T12:29:06.217Z,14.02
2023-02-23T12:31:57.688Z,12.50
2023-02-23T12:34:47.656Z,12.60
2023-02-23T12:37:18.005Z,12.43
2023-02-23T12:39:54.736Z,11.57
2023-02-23T12:42:50.455Z,11.47
2023-02-23T12:45:53.696Z,10.97
2023-02-23T12:48:50.384Z,10.97
2023-02-23T12:51:39.763Z,11.30
2023-02-23T12:54:17.992Z,11.17
2023-02-23T12:57:00.636Z,10.43
2023-02-23T13:00:11.553Z,10.17
2023-02-23T13:03:12.673Z,10.00
2023-02-23T13:06:18.987Z,9.40
2023-02-23T13:09:26.225Z,10.13
2023-02-23T13:12:25.407Z,10.07
2023-02-23T13:19:38.106Z,10.27
2023-02-23T13:22:21.830Z,10.23
2023-02-23T13:24:54.081Z,9.67
2023-02-23T13:27:40.572Z,9.80
2023-02-23T13:30:12.539Z,10.17
2023-02-23T13:36:48.236Z,9.33
2023-02-23T13:40:01.197Z,9.63
2023-02-23T13:42:53.770Z,9.67
2023-02-23T13:45:51.348Z,9.33
2023-02-23T13:48:57.288Z,8.47
2023-02-23T13:51:44.987Z,8.90
2023-02-23T13:54:15.202Z,9.40
2023-02-23T13:56:54.834Z,9.43
2023-02-23T13:59:30.243Z,9.07
2023-02-23T14:02:22.633Z,8.83
2023-02-23T14:05:06.996Z,8.93
2023-02-23T14:07:42.991Z,10.30
2023-02-23T14:10:21.991Z,9.20
2023-02-23T14:13:27.838Z,9.30
2023-02-23T14:16:17.781Z,9.50
2023-02-23T14:18:54.205Z,8.80
2023-02-23T14:21:37.576Z,9.50
2023-02-23T14:24:29.395Z,8.70
2023-02-23T14:27:01.908Z,9.03
2023-02-23T14:29:31.533Z,8.73
2023-02-23T14:32:11.268Z,9.27
2023-02-23T14:34:57.335Z,9.07
2023-02-23T14:37:41.253Z,9.10
2023-02-23T14:40:31.880Z,9.10
2023-02-23T14:43:03.801Z,9.17
2023-02-23T14:45:39.112Z,8.20
2023-02-23T14:48:12.467Z,9.77
2023-02-23T14:50:40.708Z,8.87
2023-02-23T14:53:19.805Z,8.90
2023-02-23T14:55:47.294Z,8.70
2023-02-23T14:58:31.551Z,9.33
2023-02-23T15:05:17.061Z,12.13
2023-02-23T15:07:44.987Z,9.93
2023-02-23T15:10:26.294Z,10.73
2023-02-23T15:12:54.616Z,9.40
2023-02-23T15:15:26.344Z,10.73
2023-02-23T15:17:59.883Z,12.73
2023-02-23T15:23:05.808Z,10.07
2023-02-23T15:29:33.996Z,9.37
2023-02-23T15:32:30.874Z,10.17
2023-02-23T15:34:58.325Z,9.63
2023-02-23T15:40:22.591Z,11.40
2023-02-23T15:42:58.391Z,12.47
2023-02-23T15:45:35.915Z,10.00
2023-02-23T15:48:08.764Z,8.80
2023-02-23T15:50:43.783Z,9.23
2023-02-23T15:53:26.604Z,8.70
2023-02-23T15:55:57.861Z,8.17
2023-02-23T15:58:31.245Z,8.80
2023-02-23T16:01:10.522Z,8.33
2023-02-23T16:03:41.911Z,8.27
2023-02-23T16:06:22.964Z,7.53
2023-02-23T16:09:01.581Z,8.57
2023-02-23T16:11:35.561Z,7.90
2023-02-23T16:14:14.559Z,9.10
2023-02-23T16:16:41.945Z,8.37
2023-02-23T16:19:14.699Z,9.47
2023-02-23T16:21:42.053Z,9.77
2023-02-23T16:24:16.772Z,9.20
2023-02-23T16:27:01.534Z,9.03
2023-02-23T16:29:39.605Z,18.00
2023-02-23T16:32:19.358Z,10.27
2023-02-23T16:35:01.810Z,10.67
2023-02-23T16:37:29.518Z,9.23
2023-02-23T16:39:56.910Z,9.00
2023-02-23T16:42:32.882Z,9.40
2023-02-23T16:45:00.893Z,9.27
2023-02-23T16:47:47.147Z,10.03
2023-02-23T16:50:21.267Z,9.40
2023-02-23T16:52:52.124Z,9.40
2023-02-23T16:59:19.175Z,10.13
2023-02-23T17:01:46.479Z,10.33
2023-02-23T17:08:19.696Z,10.47
2023-02-23T17:10:51.660Z,10.40
2023-02-23T17:13:26.212Z,11.67
2023-02-23T17:15:55.927Z,10.33
2023-02-23T17:18:28.408Z,11.47
2023-02-23T17:25:01.407Z,10.27
2023-02-23T17:27:28.699Z,11.23
2023-02-23T17:29:57.319Z,11.63
2023-02-23T17:32:24.749Z,11.37
2023-02-23T17:34:52.111Z,10.97
2023-02-23T17:37:19.340Z,11.07
2023-02-23T17:39:46.969Z,11.87
2023-02-23T17:42:14.158Z,12.27
2023-02-23T17:44:41.601Z,12.97
2023-02-23T17:47:09.396Z,13.60
2023-02-23T17:49:37.002Z,15.27
2023-02-23T17:52:04.413Z,14.57
2023-02-23T17:54:31.747Z,12.53
2023-02-23T17:56:58.933Z,12.03
2023-02-23T17:59:26.256Z,12.13
2023-02-23T18:01:53.446Z,12.17
2023-02-23T18:04:20.699Z,12.97
2023-02-23T18:06:47.949Z,12.63
2023-02-23T18:13:14.378Z,11.30
2023-02-23T18:15:41.663Z,12.87
2023-02-23T18:18:09.075Z,12.00
2023-02-23T18:20:36.365Z,13.00
2023-02-23T18:23:03.623Z,12.97
2023-02-23T18:25:31.092Z,13.27
2023-02-23T18:27:58.310Z,12.70
2023-02-23T18:30:26.685Z,12.80
2023-02-23T18:32:58.661Z,13.63
2023-02-23T18:35:26.330Z,14.33
2023-02-23T18:37:53.609Z,13.40
2023-02-23T18:40:21.038Z,14.07
2023-02-23T18:42:49.785Z,15.40
2023-02-23T18:45:17.432Z,14.83
2023-02-23T18:47:44.721Z,14.33
2023-02-23T18:50:12.858Z,14.43
2023-02-23T18:52:40.371Z,15.00
2023-02-23T18:55:08.791Z,14.97
2023-02-23T18:57:35.913Z,15.67
2023-02-23T19:00:06.487Z,15.60
2023-02-23T19:02:33.777Z,16.10
2023-02-23T19:05:01.443Z,15.83
2023-02-23T19:07:32.505Z,16.43
2023-02-23T19:09:59.897Z,16.93
2023-02-23T19:12:30.033Z,16.43
2023-02-23T19:14:58.556Z,17.47
2023-02-23T19:17:28.124Z,17.17
2023-02-23T19:19:56.335Z,18.03
2023-02-23T19:22:23.770Z,16.40
2023-02-23T19:24:51.223Z,18.20
2023-02-23T19:27:19.444Z,17.80
2023-02-23T19:29:47.287Z,18.27
2023-02-23T19:32:16.630Z,18.10
2023-02-23T19:34:45.029Z,18.47
2023-02-23T19:37:12.887Z,17.97
2023-02-23T19:43:47.276Z,18.73
2023-02-23T19:46:17.502Z,18.70
2023-02-23T19:48:48.873Z,17.63
2023-02-23T19:51:16.440Z,17.60
2023-02-23T19:53:43.690Z,17.90
2023-02-23T19:56:13.979Z,19.87
2023-02-23T20:06:43.767Z,18.97
2023-02-23T20:09:11.780Z,18.87
2023-02-23T20:11:39.456Z,18.47
2023-02-23T20:14:07.325Z,18.50
2023-02-23T20:16:35.956Z,16.70
2023-02-23T20:19:03.817Z,16.50
2023-02-23T20:21:31.394Z,17.17
2023-02-23T20:23:59.184Z,17.53
2023-02-23T20:26:31.822Z,15.77
2023-02-23T20:28:59.015Z,15.10
2023-02-23T20:31:30.811Z,17.50
2023-02-23T20:34:02.703Z,17.83
2023-02-23T20:36:30.018Z,19.13
2023-02-23T20:38:57.205Z,19.27
2023-02-23T20:41:24.679Z,20.33
2023-02-23T20:43:52.024Z,19.57
2023-02-23T20:46:20.024Z,19.83
2023-02-23T20:48:47.550Z,19.97
2023-02-23T20:51:17.193Z,20.53
2023-02-23T20:53:47.236Z,20.43
2023-02-23T20:56:18.464Z,20.63
2023-02-23T20:58:46.441Z,21.00
2023-02-23T21:01:20.862Z,20.97
2023-02-23T21:03:56.557Z,22.10
2023-02-23T21:06:26.745Z,19.77
2023-02-23T21:08:55.409Z,19.87
2023-02-23T21:15:30.532Z,18.13
2023-02-23T21:17:59.462Z,19.27
2023-02-23T21:20:27.091Z,19.23
2023-02-23T21:22:55.768Z,17.47
2023-02-23T21:25:26.972Z,18.37
2023-02-23T21:27:54.572Z,18.33
2023-02-23T21:30:25.321Z,17.87
2023-02-23T21:32:54.245Z,17.40
2023-02-23T21:35:21.761Z,16.77
2023-02-23T21:37:51.810Z,16.10
2023-02-23T21:40:20.139Z,16.30
2023-02-23T21:42:49.554Z,14.53
2023-02-23T21:45:18.268Z,14.93
2023-02-23T21:47:49.120Z,13.17
2023-02-23T21:50:19.668Z,14.60
2023-02-23T21:52:47.963Z,14.43
2023-02-23T21:55:21.548Z,15.43
2023-02-23T21:57:50.223Z,16.60
2023-02-23T22:00:17.782Z,16.50
2023-02-23T22:02:45.397Z,17.13
2023-02-23T22:05:15.463Z,18.47
2023-02-23T22:07:49.844Z,16.33
2023-02-23T22:10:20.810Z,16.53
2023-02-23T22:12:48.628Z,15.70
2023-02-23T22:15:16.281Z,15.23
2023-02-23T22:17:44.384Z,15.47
2023-02-23T22:20:12.532Z,16.80
2023-02-23T22:22:39.727Z,16.77
2023-02-23T22:25:08.390Z,14.60
2023-02-23T22:27:35.827Z,14.00
2023-02-23T22:30:03.480Z,12.70
2023-02-23T22:32:31.114Z,11.80
2023-02-23T22:34:59.973Z,11.63
2023-02-23T22:37:28.082Z,11.43
2023-02-23T22:39:56.756Z,11.20
2023-02-23T22:42:24.209Z,10.00
2023-02-23T22:44:51.671Z,11.33
2023-02-23T22:47:18.884Z,12.17
2023-02-23T22:49:47.569Z,13.40
2023-02-23T22:52:14.976Z,15.30
2023-02-23T22:54:42.408Z,13.13
2023-02-23T22:57:09.697Z,12.80
2023-02-23T22:59:37.585Z,13.63
2023-02-23T23:02:04.924Z,13.83
2023-02-23T23:04:32.543Z,13.63
2023-02-23T23:06:59.915Z,13.03
2023-02-23T23:09:27.114Z,12.80
2023-02-23T23:11:54.304Z,12.33
2023-02-23T23:14:21.548Z,11.37
2023-02-23T23:16:48.882Z,11.77
2023-02-23T23:19:21.369Z,12.23
2023-02-23T23:21:48.693Z,13.13
2023-02-23T23:28:22.309Z,12.30
2023-02-23T23:30:49.812Z,10.77
2023-02-23T23:33:17.045Z,10.47
2023-02-23T23:35:44.535Z,10.97
2023-02-23T23:38:11.761Z,10.97
2023-02-23T23:40:38.989Z,10.70
2023-02-23T23:43:06.213Z,10.30
2023-02-23T23:45:33.727Z,11.27
2023-02-23T23:48:00.951Z,11.13
2023-02-23T23:50:28.330Z,11.33
2023-02-23T23:52:56.018Z,11.53
2023-02-23T23:55:23.304Z,11.57
2023-02-23T23:57:50.827Z,10.53
